createdAt,value
2019-05-22T00:01:03.735Z,67.04
2019-05-22T00:03:40.892Z,67.01
2019-05-22T00:06:10.140Z,66.99
2019-05-22T00:08:39.854Z,67.01
2019-05-22T00:11:08.107Z,67.00
2019-05-22T00:13:39.553Z,67.03
2019-05-22T00:16:09.126Z,67.03
2019-05-22T00:18:39.195Z,67.01
2019-05-22T00:21:09.209Z,67.02
2019-05-22T00:23:39.976Z,67.04
2019-05-22T00:26:10.450Z,67.05
2019-05-22T00:28:38.888Z,67.09
2019-05-22T00:31:07.676Z,67.13
2019-05-22T00:33:36.587Z,67.12
2019-05-22T00:36:05.849Z,67.15
2019-05-22T00:38:36.577Z,67.18
2019-05-22T00:41:09.564Z,67.19
2019-05-22T00:43:41.451Z,67.22
2019-05-22T00:46:15.213Z,67.21
2019-05-22T00:48:47.351Z,67.24
2019-05-22T00:51:34.153Z,67.21
2019-05-22T00:54:37.386Z,67.20
2019-05-22T00:57:26.355Z,67.19
2019-05-22T00:59:58.644Z,67.21
2019-05-22T01:02:27.675Z,67.24
2019-05-22T01:04:57.778Z,67.27
2019-05-22T01:07:36.552Z,67.29
2019-05-22T01:10:09.733Z,67.28
2019-05-22T01:12:43.475Z,67.28
2019-05-22T01:15:17.440Z,67.29
2019-05-22T01:17:47.782Z,67.25
2019-05-22T01:20:16.240Z,67.25
2019-05-22T01:22:47.832Z,67.27
2019-05-22T01:25:20.437Z,67.27
2019-05-22T01:27:48.594Z,67.22
2019-05-22T01:30:28.020Z,67.19
2019-05-22T01:32:58.936Z,67.18
2019-05-22T01:35:34.774Z,67.16
2019-05-22T01:38:03.587Z,67.20
2019-05-22T01:40:41.944Z,67.23
2019-05-22T01:43:16.062Z,67.27
2019-05-22T01:45:52.131Z,67.26
2019-05-22T01:48:30.219Z,67.28
2019-05-22T01:51:00.378Z,67.30
2019-05-22T01:53:35.491Z,67.33
2019-05-22T01:56:05.786Z,67.32
2019-05-22T01:58:36.001Z,67.34
2019-05-22T02:01:09.186Z,67.38
2019-05-22T02:03:38.590Z,67.40
2019-05-22T02:06:09.440Z,67.46
2019-05-22T02:08:44.266Z,67.51
2019-05-22T02:11:18.231Z,67.55
2019-05-22T02:13:56.729Z,67.58
2019-05-22T02:16:27.030Z,67.57
2019-05-22T02:18:55.898Z,67.59
2019-05-22T02:21:26.214Z,67.63
2019-05-22T02:23:55.645Z,67.65
2019-05-22T02:26:23.902Z,67.63
2019-05-22T02:28:53.693Z,67.60
2019-05-22T02:31:25.855Z,67.60
2019-05-22T02:34:03.037Z,67.59
2019-05-22T02:36:34.165Z,67.57
2019-05-22T02:39:04.469Z,67.60
2019-05-22T02:41:42.809Z,67.61
2019-05-22T02:44:10.915Z,67.60
2019-05-22T02:46:39.809Z,67.58
2019-05-22T02:49:09.949Z,67.65
2019-05-22T02:51:39.593Z,67.67
2019-05-22T02:54:09.647Z,67.67
2019-05-22T02:56:39.089Z,67.66
2019-05-22T02:59:08.253Z,67.63
2019-05-22T03:01:38.186Z,67.60
2019-05-22T03:04:08.618Z,67.57
2019-05-22T03:06:40.784Z,67.57
2019-05-22T03:09:25.406Z,67.61
2019-05-22T03:12:02.775Z,67.63
2019-05-22T03:14:34.396Z,67.67
2019-05-22T03:17:07.224Z,67.71
2019-05-22T03:19:44.558Z,67.70
2019-05-22T03:22:23.644Z,67.68
2019-05-22T03:24:54.190Z,67.61
2019-05-22T03:27:39.540Z,67.55
2019-05-22T03:30:31.928Z,67.56
2019-05-22T03:33:03.437Z,67.58
2019-05-22T03:35:43.410Z,67.51
2019-05-22T03:38:11.848Z,67.42
2019-05-22T03:40:40.898Z,67.38
2019-05-22T03:43:18.285Z,67.32
2019-05-22T03:45:48.552Z,67.30
2019-05-22T03:48:19.587Z,67.30
2019-05-22T03:50:48.868Z,67.27
2019-05-22T03:53:18.359Z,67.27
2019-05-22T03:55:47.893Z,67.26
2019-05-22T03:58:17.437Z,67.25
2019-05-22T04:00:46.770Z,67.26
2019-05-22T04:03:16.379Z,67.28
2019-05-22T04:05:45.945Z,67.28
2019-05-22T04:08:14.842Z,67.27
2019-05-22T04:10:56.359Z,67.32
2019-05-22T04:13:25.698Z,67.36
2019-05-22T04:15:54.487Z,67.41
2019-05-22T04:18:25.578Z,67.53
2019-05-22T04:20:56.474Z,67.62
2019-05-22T04:23:24.869Z,67.71
2019-05-22T04:25:56.182Z,67.80
2019-05-22T04:28:25.243Z,67.85
2019-05-22T04:30:59.665Z,67.90
2019-05-22T04:33:29.672Z,67.93
2019-05-22T04:36:01.155Z,67.92
2019-05-22T04:38:30.008Z,67.98
2019-05-22T04:41:00.802Z,68.06
2019-05-22T04:43:33.360Z,68.17
2019-05-22T04:46:05.938Z,68.25
2019-05-22T04:48:37.342Z,68.37
2019-05-22T04:51:28.311Z,68.45
2019-05-22T04:54:17.736Z,68.48
2019-05-22T04:56:46.657Z,68.50
2019-05-22T04:59:15.027Z,68.58
2019-05-22T05:01:43.145Z,68.67
2019-05-22T05:04:11.798Z,68.71
2019-05-22T05:06:41.144Z,68.73
2019-05-22T05:09:11.764Z,68.76
2019-05-22T05:11:40.018Z,68.81
2019-05-22T05:14:08.138Z,68.83
2019-05-22T05:16:36.947Z,68.80
2019-05-22T05:19:05.754Z,68.82
2019-05-22T05:21:33.873Z,68.83
2019-05-22T05:24:02.219Z,68.79
2019-05-22T05:26:30.946Z,68.75
2019-05-22T05:29:00.291Z,68.73
2019-05-22T05:31:28.488Z,68.78
2019-05-22T05:34:29.929Z,68.83
2019-05-22T05:37:01.908Z,68.84
2019-05-22T05:40:25.921Z,68.87
2019-05-22T05:42:54.180Z,68.94
2019-05-22T05:45:22.623Z,68.93
2019-05-22T05:47:50.853Z,68.93
2019-05-22T05:50:21.489Z,68.91
2019-05-22T05:52:51.601Z,68.85
2019-05-22T05:55:23.105Z,68.89
2019-05-22T05:58:27.012Z,68.94
2019-05-22T06:01:06.476Z,68.97
2019-05-22T06:03:40.721Z,68.96
2019-05-22T06:07:11.917Z,68.92
2019-05-22T06:09:40.515Z,68.91
2019-05-22T06:12:11.320Z,68.87
2019-05-22T06:14:41.608Z,68.86
2019-05-22T06:18:29.102Z,68.84
2019-05-22T06:21:04.000Z,68.84
2019-05-22T06:24:20.541Z,68.97
2019-05-22T06:27:10.469Z,69.04
2019-05-22T06:29:57.061Z,69.13
2019-05-22T06:33:33.431Z,69.25
2019-05-22T06:36:06.832Z,69.33
2019-05-22T06:39:14.716Z,69.35
2019-05-22T06:41:43.455Z,69.32
2019-05-22T06:44:39.173Z,69.25
2019-05-22T06:47:12.840Z,69.20
2019-05-22T06:49:52.751Z,69.10
2019-05-22T06:52:21.336Z,68.99
2019-05-22T06:54:50.323Z,68.87
2019-05-22T06:57:29.023Z,68.84
2019-05-22T07:00:13.015Z,68.77
2019-05-22T07:02:36.030Z,68.70
2019-05-22T07:05:07.330Z,68.64
2019-05-22T07:07:35.969Z,68.52
2019-05-22T07:10:06.965Z,68.43
2019-05-22T07:12:35.344Z,68.33
2019-05-22T07:15:37.375Z,68.22
2019-05-22T07:18:06.607Z,68.12
2019-05-22T07:20:37.379Z,68.08
2019-05-22T07:23:08.780Z,67.99
2019-05-22T07:25:39.372Z,67.84
2019-05-22T07:28:08.953Z,67.81
2019-05-22T07:30:37.664Z,67.71
2019-05-22T07:33:06.722Z,67.53
2019-05-22T07:35:50.296Z,67.34
2019-05-22T07:38:07.621Z,67.19
2019-05-22T07:40:36.722Z,67.13
2019-05-22T07:43:05.398Z,67.14
2019-05-22T07:45:34.734Z,67.16
2019-05-22T07:48:05.032Z,67.23
2019-05-22T07:50:35.810Z,67.24
2019-05-22T07:53:05.447Z,67.17
2019-05-22T07:55:34.668Z,67.04
2019-05-22T07:58:12.802Z,66.87
2019-05-22T08:00:46.903Z,66.69
2019-05-22T08:03:15.688Z,66.35
2019-05-22T08:05:53.091Z,65.85
2019-05-22T08:08:22.300Z,65.33
2019-05-22T08:10:52.516Z,64.78
2019-05-22T08:13:21.362Z,64.32
2019-05-22T08:15:50.934Z,64.01
2019-05-22T08:18:20.292Z,63.91
2019-05-22T08:20:49.598Z,63.94
2019-05-22T08:23:20.072Z,63.81
2019-05-22T08:25:48.368Z,63.65
2019-05-22T08:28:19.507Z,63.51
2019-05-22T08:30:49.549Z,63.31
2019-05-22T08:33:20.181Z,63.03
2019-05-22T08:35:49.937Z,62.79
2019-05-22T08:38:27.566Z,62.61
2019-05-22T08:40:58.078Z,62.48
2019-05-22T08:43:28.444Z,62.32
2019-05-22T08:45:56.602Z,62.10
2019-05-22T08:48:27.508Z,61.83
2019-05-22T08:50:58.035Z,61.45
2019-05-22T08:53:27.369Z,61.30
2019-05-22T08:55:57.359Z,61.23
2019-05-22T08:58:27.300Z,61.02
2019-05-22T09:00:55.913Z,60.81
2019-05-22T09:03:24.220Z,60.40
2019-05-22T09:05:53.152Z,60.24
2019-05-22T09:08:21.725Z,60.17
2019-05-22T09:10:50.006Z,59.84
2019-05-22T09:13:18.207Z,59.36
2019-05-22T09:15:46.833Z,58.82
2019-05-22T09:18:15.210Z,58.48
2019-05-22T09:20:49.248Z,58.07
2019-05-22T09:23:14.961Z,57.73
2019-05-22T09:25:43.117Z,57.51
2019-05-22T09:28:11.616Z,57.17
2019-05-22T09:30:39.768Z,56.63
2019-05-22T09:33:09.980Z,56.31
2019-05-22T09:35:38.350Z,56.06
2019-05-22T09:38:06.919Z,55.66
2019-05-22T09:40:35.142Z,55.20
2019-05-22T09:43:04.618Z,54.92
2019-05-22T09:45:34.159Z,54.70
2019-05-22T09:48:04.984Z,54.60
2019-05-22T09:50:33.599Z,54.40
2019-05-22T09:53:02.889Z,54.47
2019-05-22T09:55:31.566Z,54.38
2019-05-22T09:58:00.024Z,54.00
2019-05-22T10:00:29.251Z,53.89
2019-05-22T10:02:58.011Z,53.81
2019-05-22T10:05:26.441Z,53.46
2019-05-22T10:08:00.987Z,52.97
2019-05-22T10:10:26.867Z,52.50
2019-05-22T10:12:55.076Z,52.15
2019-05-22T10:15:25.353Z,51.66
2019-05-22T10:17:55.007Z,51.58
2019-05-22T10:20:23.668Z,51.14
2019-05-22T10:22:52.279Z,50.68
2019-05-22T10:25:20.354Z,50.06
2019-05-22T10:27:48.992Z,49.82
2019-05-22T10:30:21.975Z,49.83
2019-05-22T10:32:50.506Z,49.87
2019-05-22T10:35:22.784Z,49.80
2019-05-22T10:37:51.218Z,49.48
2019-05-22T10:40:22.320Z,49.21
2019-05-22T10:42:51.773Z,48.79
2019-05-22T10:45:21.634Z,48.49
2019-05-22T10:47:50.624Z,48.36
2019-05-22T10:50:19.491Z,48.09
2019-05-22T10:52:53.970Z,47.92
2019-05-22T10:55:19.987Z,47.76
2019-05-22T10:57:48.859Z,47.69
2019-05-22T11:00:19.264Z,47.61
2019-05-22T11:02:48.450Z,47.28
2019-05-22T11:05:19.723Z,47.23
2019-05-22T11:07:50.251Z,47.10
2019-05-22T11:10:21.787Z,47.20
2019-05-22T11:12:50.351Z,47.31
2019-05-22T11:15:19.685Z,47.44
2019-05-22T11:17:48.601Z,47.38
2019-05-22T11:20:17.330Z,47.11
2019-05-22T11:22:48.541Z,46.79
2019-05-22T11:25:16.978Z,46.47
2019-05-22T11:27:44.974Z,46.20
2019-05-22T11:30:15.370Z,45.95
2019-05-22T11:32:44.042Z,45.54
2019-05-22T11:35:13.413Z,45.24
2019-05-22T11:37:41.600Z,44.92
2019-05-22T11:40:11.108Z,44.58
2019-05-22T11:42:39.542Z,44.52
2019-05-22T11:45:11.513Z,44.37
2019-05-22T11:47:40.785Z,44.43
2019-05-22T11:50:10.403Z,44.43
2019-05-22T11:52:38.805Z,44.41
2019-05-22T11:55:07.745Z,44.14
2019-05-22T11:57:39.304Z,44.07
2019-05-22T12:00:09.523Z,43.98
2019-05-22T12:02:38.064Z,43.78
2019-05-22T12:05:08.373Z,43.73
2019-05-22T12:07:40.398Z,43.64
2019-05-22T12:10:09.687Z,43.59
2019-05-22T12:12:39.953Z,43.42
2019-05-22T12:15:11.176Z,43.04
2019-05-22T12:17:39.765Z,42.48
2019-05-22T12:20:09.227Z,41.96
2019-05-22T12:22:37.929Z,41.64
2019-05-22T12:25:07.938Z,41.35
2019-05-22T12:27:36.005Z,41.19
2019-05-22T12:30:05.287Z,41.21
2019-05-22T12:32:33.628Z,41.40
2019-05-22T12:35:02.302Z,41.60
2019-05-22T12:37:33.739Z,41.60
2019-05-22T12:40:03.110Z,41.67
2019-05-22T12:42:32.895Z,41.64
2019-05-22T12:45:01.145Z,41.48
2019-05-22T12:47:29.713Z,41.44
2019-05-22T12:49:58.147Z,41.28
2019-05-22T12:52:30.475Z,41.04
2019-05-22T12:54:59.715Z,40.99
2019-05-22T12:57:28.506Z,41.00
2019-05-22T13:00:01.845Z,40.91
2019-05-22T13:02:30.028Z,40.76
2019-05-22T13:04:59.471Z,40.71
2019-05-22T13:07:27.625Z,40.62
2019-05-22T13:09:55.964Z,40.63
2019-05-22T13:12:25.015Z,40.62
2019-05-22T13:15:08.193Z,40.64
2019-05-22T13:17:25.228Z,40.70
2019-05-22T13:19:55.305Z,40.88
2019-05-22T13:22:27.112Z,40.87
2019-05-22T13:24:56.569Z,40.75
2019-05-22T13:27:25.310Z,40.58
2019-05-22T13:29:55.982Z,40.37
2019-05-22T13:32:31.029Z,40.13
2019-05-22T13:35:00.663Z,40.08
2019-05-22T13:37:29.524Z,39.94
2019-05-22T13:39:57.771Z,39.64
2019-05-22T13:42:27.874Z,39.52
2019-05-22T13:44:57.738Z,39.44
2019-05-22T13:47:26.207Z,39.48
2019-05-22T13:49:55.069Z,39.66
2019-05-22T13:52:23.351Z,39.73
2019-05-22T13:54:53.044Z,39.62
2019-05-22T13:57:22.693Z,39.50
2019-05-22T13:59:51.261Z,39.36
2019-05-22T14:02:19.375Z,39.25
2019-05-22T14:04:47.441Z,39.11
2019-05-22T14:07:16.663Z,39.12
2019-05-22T14:09:45.457Z,39.01
2019-05-22T14:12:15.569Z,39.05
2019-05-22T14:14:44.085Z,38.96
2019-05-22T14:17:12.289Z,38.92
2019-05-22T14:19:40.856Z,38.87
2019-05-22T14:22:09.098Z,38.81
2019-05-22T14:24:37.232Z,38.68
2019-05-22T14:27:05.920Z,38.49
2019-05-22T14:29:34.481Z,38.50
2019-05-22T14:32:03.572Z,38.41
2019-05-22T14:34:32.430Z,38.53
2019-05-22T14:37:00.799Z,38.58
2019-05-22T14:39:29.694Z,38.44
2019-05-22T14:41:58.175Z,38.24
2019-05-22T14:44:27.656Z,38.07
2019-05-22T14:46:55.708Z,38.05
2019-05-22T14:49:24.537Z,38.06
2019-05-22T14:51:54.162Z,38.06
2019-05-22T14:54:22.961Z,37.88
2019-05-22T14:56:51.206Z,37.77
2019-05-22T14:59:19.671Z,37.61
2019-05-22T15:01:47.752Z,37.56
2019-05-22T15:04:15.925Z,37.55
2019-05-22T15:06:44.750Z,37.64
2019-05-22T15:09:12.968Z,37.70
2019-05-22T15:11:41.374Z,37.74
2019-05-22T15:14:09.355Z,37.80
2019-05-22T15:16:38.019Z,37.89
2019-05-22T15:19:07.888Z,37.98
2019-05-22T15:21:36.447Z,38.03
2019-05-22T15:24:07.042Z,38.05
2019-05-22T15:26:35.180Z,38.14
2019-05-22T15:29:05.732Z,38.25
2019-05-22T15:31:33.967Z,38.36
2019-05-22T15:34:04.770Z,38.41
2019-05-22T15:36:33.954Z,38.47
2019-05-22T15:39:05.142Z,38.49
2019-05-22T15:41:33.692Z,38.57
2019-05-22T15:44:03.854Z,38.61
2019-05-22T15:46:32.152Z,38.58
2019-05-22T15:49:04.856Z,38.62
2019-05-22T15:51:35.334Z,38.56
2019-05-22T15:54:06.991Z,38.50
2019-05-22T15:56:39.495Z,38.53
2019-05-22T15:59:11.185Z,38.54
2019-05-22T16:01:41.402Z,38.60
2019-05-22T16:04:14.252Z,38.62
2019-05-22T16:06:43.637Z,38.67
2019-05-22T16:09:15.553Z,38.72
2019-05-22T16:11:46.252Z,38.74
2019-05-22T16:14:15.266Z,38.81
2019-05-22T16:16:47.669Z,38.88
2019-05-22T16:19:16.214Z,38.89
2019-05-22T16:21:46.696Z,38.90
2019-05-22T16:24:16.301Z,38.91
2019-05-22T16:26:44.611Z,38.97
2019-05-22T16:29:14.754Z,38.96
2019-05-22T16:31:45.101Z,39.01
2019-05-22T16:34:14.404Z,39.09
2019-05-22T16:36:44.468Z,39.13
2019-05-22T16:39:15.135Z,39.10
2019-05-22T16:41:43.848Z,39.16
2019-05-22T16:44:13.600Z,39.19
2019-05-22T16:46:43.116Z,39.23
2019-05-22T16:49:13.212Z,39.30
2019-05-22T16:51:44.339Z,39.35
2019-05-22T16:54:14.621Z,39.42
2019-05-22T16:56:43.049Z,39.50
2019-05-22T16:59:12.116Z,39.54
2019-05-22T17:01:57.542Z,39.54
2019-05-22T17:04:10.891Z,39.55
2019-05-22T17:06:42.264Z,39.55
2019-05-22T17:09:11.811Z,39.52
2019-05-22T17:11:41.329Z,39.50
2019-05-22T17:14:12.003Z,39.55
2019-05-22T17:16:42.597Z,39.62
2019-05-22T17:19:25.848Z,39.67
2019-05-22T17:21:43.722Z,39.65
2019-05-22T17:24:13.580Z,39.66
2019-05-22T17:26:42.372Z,39.68
2019-05-22T17:29:10.833Z,39.69
2019-05-22T17:31:39.842Z,39.69
2019-05-22T17:34:26.077Z,39.74
2019-05-22T17:36:56.939Z,39.78
2019-05-22T17:39:27.211Z,39.79
2019-05-22T17:41:56.928Z,39.83
2019-05-22T17:44:27.110Z,39.90
2019-05-22T17:46:58.323Z,39.94
2019-05-22T17:49:29.276Z,39.96
2019-05-22T17:51:59.359Z,39.96
2019-05-22T17:54:29.355Z,40.00
2019-05-22T17:56:58.381Z,40.03
2019-05-22T17:59:26.704Z,40.00
2019-05-22T18:01:55.495Z,40.01
2019-05-22T18:04:23.761Z,40.05
2019-05-22T18:06:52.869Z,40.09
2019-05-22T18:09:21.130Z,40.05
2019-05-22T18:11:49.515Z,40.08
2019-05-22T18:14:17.618Z,40.08
2019-05-22T18:16:45.782Z,40.10
2019-05-22T18:19:14.370Z,40.16
2019-05-22T18:21:42.698Z,40.23
2019-05-22T18:24:11.617Z,40.27
2019-05-22T18:26:39.844Z,40.26
2019-05-22T18:29:07.816Z,40.32
2019-05-22T18:31:37.466Z,40.33
2019-05-22T18:34:05.976Z,40.40
2019-05-22T18:36:34.386Z,40.44
2019-05-22T18:39:02.837Z,40.45
2019-05-22T18:41:32.644Z,40.49
2019-05-22T18:44:01.448Z,40.50
2019-05-22T18:46:31.202Z,40.57
2019-05-22T18:48:59.196Z,40.57
2019-05-22T18:51:28.060Z,40.61
2019-05-22T18:53:56.344Z,40.67
2019-05-22T18:56:24.672Z,40.68
2019-05-22T18:58:52.724Z,40.76
2019-05-22T19:01:21.414Z,40.81
2019-05-22T19:03:49.719Z,40.85
2019-05-22T19:06:29.728Z,40.92
2019-05-22T19:08:48.882Z,41.00
2019-05-22T19:11:16.999Z,41.10
2019-05-22T19:13:45.261Z,41.20
2019-05-22T19:16:14.246Z,41.34
2019-05-22T19:18:42.615Z,41.47
2019-05-22T19:21:11.588Z,41.66
2019-05-22T19:23:39.583Z,41.82
2019-05-22T19:26:07.842Z,41.99
2019-05-22T19:28:43.353Z,42.10
2019-05-22T19:31:06.646Z,42.18
2019-05-22T19:33:34.581Z,42.26
2019-05-22T19:36:03.670Z,42.36
2019-05-22T19:38:32.648Z,42.51
2019-05-22T19:41:00.882Z,42.62
2019-05-22T19:43:29.187Z,42.70
2019-05-22T19:45:57.760Z,42.81
2019-05-22T19:48:25.916Z,42.89
2019-05-22T19:50:54.326Z,42.96
2019-05-22T19:53:22.482Z,43.04
2019-05-22T19:55:50.953Z,43.14
2019-05-22T19:58:22.029Z,43.22
2019-05-22T20:00:50.806Z,43.30
2019-05-22T20:03:21.720Z,43.39
2019-05-22T20:05:50.018Z,43.47
2019-05-22T20:08:18.391Z,43.59
2019-05-22T20:10:47.552Z,43.70
2019-05-22T20:13:18.193Z,43.82
2019-05-22T20:15:47.028Z,43.89
2019-05-22T20:18:15.499Z,43.97
2019-05-22T20:20:43.582Z,44.09
2019-05-22T20:23:12.690Z,44.18
2019-05-22T20:25:40.868Z,44.30
2019-05-22T20:28:10.117Z,44.40
2019-05-22T20:30:38.086Z,44.49
2019-05-22T20:33:06.702Z,44.56
2019-05-22T20:35:35.295Z,44.63
2019-05-22T20:38:05.493Z,44.78
2019-05-22T20:40:33.875Z,44.85
2019-05-22T20:43:05.121Z,44.94
2019-05-22T20:45:33.366Z,45.00
2019-05-22T20:48:20.884Z,45.09
2019-05-22T20:50:48.944Z,45.18
2019-05-22T20:53:19.054Z,45.24
2019-05-22T20:55:50.088Z,45.31
2019-05-22T20:58:20.372Z,45.40
2019-05-22T21:00:50.897Z,45.47
2019-05-22T21:03:20.701Z,45.51
2019-05-22T21:05:50.866Z,45.65
2019-05-22T21:08:24.005Z,45.71
2019-05-22T21:10:53.778Z,45.77
2019-05-22T21:13:23.200Z,45.83
2019-05-22T21:15:52.705Z,45.89
2019-05-22T21:18:25.259Z,45.98
2019-05-22T21:20:56.390Z,46.07
2019-05-22T21:23:25.582Z,46.18
2019-05-22T21:25:53.781Z,46.27
2019-05-22T21:28:22.930Z,46.34
2019-05-22T21:30:53.346Z,46.40
2019-05-22T21:33:22.824Z,46.44
2019-05-22T21:35:50.947Z,46.53
2019-05-22T21:38:20.821Z,46.56
2019-05-22T21:40:49.015Z,46.67
2019-05-22T21:43:18.418Z,46.77
2019-05-22T21:45:46.698Z,46.87
2019-05-22T21:48:15.291Z,46.93
2019-05-22T21:50:44.461Z,46.99
2019-05-22T21:53:14.142Z,47.06
2019-05-22T21:55:45.605Z,47.14
2019-05-22T21:58:14.470Z,47.22
2019-05-22T22:01:24.654Z,47.28
2019-05-22T22:03:58.420Z,47.31
2019-05-22T22:06:27.301Z,47.37
2019-05-22T22:08:57.418Z,47.49
2019-05-22T22:11:28.329Z,47.59
2019-05-22T22:13:57.014Z,47.68
2019-05-22T22:16:25.085Z,47.77
2019-05-22T22:18:54.463Z,47.79
2019-05-22T22:21:22.705Z,47.80
2019-05-22T22:23:51.717Z,47.89
2019-05-22T22:26:26.024Z,47.97
2019-05-22T22:28:51.599Z,48.01
2019-05-22T22:31:23.066Z,48.12
2019-05-22T22:33:59.007Z,48.16
2019-05-22T22:36:27.859Z,48.23
2019-05-22T22:38:56.713Z,48.33
2019-05-22T22:41:25.877Z,48.40
2019-05-22T22:43:57.699Z,48.52
2019-05-22T22:46:38.542Z,48.57
2019-05-22T22:49:14.298Z,48.65
2019-05-22T22:51:45.132Z,48.65
2019-05-22T22:54:13.594Z,48.69
2019-05-22T22:56:43.067Z,48.76
2019-05-22T22:59:11.881Z,48.83
2019-05-22T23:01:41.758Z,48.92
2019-05-22T23:04:11.647Z,48.98
2019-05-22T23:06:42.233Z,49.06
2019-05-22T23:09:12.161Z,49.15
2019-05-22T23:11:41.258Z,49.15
2019-05-22T23:14:09.558Z,49.19
2019-05-22T23:16:39.192Z,49.26
2019-05-22T23:19:43.830Z,49.29
2019-05-22T23:22:15.492Z,49.36
2019-05-22T23:24:45.400Z,49.35
2019-05-22T23:27:14.590Z,49.43
2019-05-22T23:29:44.539Z,49.47
2019-05-22T23:32:15.097Z,49.56
2019-05-22T23:34:45.170Z,49.64
2019-05-22T23:37:14.643Z,49.63
2019-05-22T23:39:45.646Z,49.71
2019-05-22T23:42:21.806Z,49.74
2019-05-22T23:44:55.426Z,49.78
2019-05-22T23:47:24.137Z,49.78
2019-05-22T23:49:53.774Z,49.84
2019-05-22T23:52:22.485Z,49.89
2019-05-22T23:54:51.552Z,49.98
2019-05-22T23:57:22.053Z,50.00
2019-05-22T23:59:56.103Z,50.04
